Time;durP1;ratioP1;P1;durP2;ratioP2;P2;SDS_P1;SDS_P2;PMS_P1;PMS_P2;Temp;Humidity;BMP_temperature;BMP_pressure;BME280_temperature;BME280_humidity;BME280_pressure;Samples;Min_cycle;Max_cycle;Signal;HPM_P1;HPM_P2
2023/09/23 00:04:58;;;;;;;5.03;2.60;;;;;10.90;100247.00;;;;9923921;29;20227;-85
2023/09/23 00:10:05;;;;;;;9.00;2.73;;;;;10.90;100247.00;;;;9929913;29;20480;-85
2023/09/23 00:15:10;;;;;;;10.10;2.63;;;;;10.90;100252.00;;;;9918239;29;20332;-84
2023/09/23 00:20:15;;;;;;;10.93;3.00;;;;;10.90;100259.00;;;;9929863;29;20228;-85
2023/09/23 00:25:18;;;;;;;9.07;3.27;;;;;10.90;100265.00;;;;9932753;29;20214;-86
2023/09/23 00:30:23;;;;;;;5.83;2.30;;;;;10.90;100274.00;;;;9900691;29;20236;-80
2023/09/23 00:35:28;;;;;;;8.03;3.00;;;;;10.90;100282.00;;;;9919903;29;20221;-81
2023/09/23 00:40:32;;;;;;;6.20;2.33;;;;;10.90;100282.00;;;;9913015;29;20232;-81
2023/09/23 00:45:34;;;;;;;7.60;2.77;;;;;10.90;100288.00;;;;9919364;29;20221;-79
2023/09/23 00:50:36;;;;;;;11.90;2.90;;;;;10.80;100287.00;;;;9918195;29;21613;-80
2023/09/23 00:55:47;;;;;;;7.47;2.80;;;;;10.80;100293.00;;;;9901143;29;20734;-80
2023/09/23 01:00:51;;;;;;;6.63;2.40;;;;;10.80;100293.00;;;;9909833;29;20224;-79
2023/09/23 01:06:05;;;;;;;7.30;2.80;;;;;10.70;100296.00;;;;9941563;29;20229;-79
2023/09/23 01:11:08;;;;;;;6.87;2.40;;;;;10.70;100309.00;;;;9910834;29;20241;-79
2023/09/23 01:16:13;;;;;;;9.23;2.80;;;;;10.70;100319.00;;;;9914965;29;20347;-78
2023/09/23 01:21:16;;;;;;;9.60;2.70;;;;;10.70;100318.00;;;;9924048;29;20260;-79
2023/09/23 01:26:18;;;;;;;6.60;2.60;;;;;10.70;100332.00;;;;9911840;29;20221;-80
2023/09/23 01:31:22;;;;;;;8.30;2.80;;;;;10.60;100325.00;;;;9923407;29;20588;-80
2023/09/23 01:36:24;;;;;;;8.10;2.33;;;;;10.60;100332.00;;;;9911335;29;20276;-79
2023/09/23 01:41:26;;;;;;;5.17;2.43;;;;;10.60;100345.00;;;;9942006;29;20736;-80
2023/09/23 01:46:30;;;;;;;6.40;3.10;;;;;10.60;100361.00;;;;9924135;29;20257;-79
2023/09/23 01:51:32;;;;;;;7.93;2.33;;;;;10.60;100355.00;;;;9914528;29;20953;-81
2023/09/23 01:56:34;;;;;;;6.53;2.53;;;;;10.60;100367.00;;;;9911666;29;20960;-83
2023/09/23 02:01:39;;;;;;;6.83;2.70;;;;;10.60;100361.00;;;;9920537;29;20240;-82
2023/09/23 02:06:43;;;;;;;7.57;2.60;;;;;10.60;100370.00;;;;9912601;29;20233;-82
2023/09/23 02:11:45;;;;;;;6.57;2.27;;;;;10.60;100374.00;;;;9936857;29;20229;-81
2023/09/23 02:16:47;;;;;;;7.23;2.67;;;;;10.50;100381.00;;;;9919985;29;20612;-83
2023/09/23 02:21:51;;;;;;;8.17;3.73;;;;;10.50;100387.00;;;;9919277;29;20313;-83
2023/09/23 02:26:54;;;;;;;9.83;2.50;;;;;10.50;100389.00;;;;9943492;29;20281;-83
2023/09/23 02:31:56;;;;;;;11.57;3.53;;;;;10.50;100398.00;;;;9897560;29;20221;-82
2023/09/23 02:36:58;;;;;;;7.90;3.37;;;;;10.50;100403.00;;;;9915465;29;20255;-82
2023/09/23 02:42:04;;;;;;;10.23;3.50;;;;;10.40;100407.00;;;;9928507;29;20251;-82
2023/09/23 02:47:06;;;;;;;6.77;3.20;;;;;10.40;100405.00;;;;9933711;29;20261;-83
2023/09/23 02:52:08;;;;;;;12.63;3.17;;;;;10.40;100418.00;;;;9927273;29;20217;-82
2023/09/23 02:57:12;;;;;;;4.33;2.97;;;;;10.40;100418.00;;;;9945463;29;20223;-82
2023/09/23 03:02:20;;;;;;;13.73;2.90;;;;;10.40;100430.00;;;;9929668;29;20228;-81
2023/09/23 03:07:24;;;;;;;8.27;2.90;;;;;10.40;100429.00;;;;9929067;29;20232;-81
2023/09/23 03:12:38;;;;;;;8.37;2.83;;;;;10.40;100423.00;;;;9923999;29;20217;-82
2023/09/23 03:17:50;;;;;;;7.00;3.00;;;;;10.30;100430.00;;;;9907228;29;20275;-82
2023/09/23 03:22:53;;;;;;;9.27;3.37;;;;;10.30;100429.00;;;;9914837;29;20216;-82
2023/09/23 03:27:57;;;;;;;7.43;3.37;;;;;10.20;100442.00;;;;9914778;29;20347;-82
2023/09/23 03:32:59;;;;;;;11.23;3.07;;;;;10.20;100443.00;;;;9913331;29;20218;-82
2023/09/23 03:38:02;;;;;;;9.27;3.27;;;;;10.20;100451.00;;;;9926060;29;20221;-82
2023/09/23 03:43:05;;;;;;;9.47;3.27;;;;;10.20;100460.00;;;;9912993;29;20979;-83
2023/09/23 03:48:07;;;;;;;5.83;2.90;;;;;10.20;100468.00;;;;9910372;29;21358;-81
2023/09/23 03:53:12;;;;;;;10.63;3.03;;;;;10.20;100478.00;;;;9915078;29;20221;-82
2023/09/23 03:58:17;;;;;;;10.60;3.50;;;;;10.20;100481.00;;;;9925239;29;20237;-82
2023/09/23 04:03:19;;;;;;;9.87;3.60;;;;;10.20;100483.00;;;;9912293;29;20304;-83
2023/09/23 04:08:21;;;;;;;9.87;3.47;;;;;10.10;100485.00;;;;9934592;29;20225;-81
2023/09/23 04:13:27;;;;;;;7.63;3.37;;;;;10.10;100487.00;;;;9936225;29;20217;-83
2023/09/23 04:18:30;;;;;;;9.47;3.13;;;;;10.10;100486.00;;;;9918194;29;21142;-82
2023/09/23 04:23:33;;;;;;;8.03;4.37;;;;;10.10;100501.00;;;;9890036;29;20226;-82
2023/09/23 04:28:36;;;;;;;7.50;4.07;;;;;10.10;100512.00;;;;9919939;29;21148;-82
2023/09/23 04:33:39;;;;;;;8.33;3.70;;;;;10.10;100508.00;;;;9923827;29;20224;-82
2023/09/23 04:38:43;;;;;;;14.90;4.83;;;;;10.20;100508.00;;;;9927569;29;21300;-81
2023/09/23 04:43:45;;;;;;;6.83;3.87;;;;;10.10;100508.00;;;;9931002;29;20311;-82
2023/09/23 04:48:47;;;;;;;7.77;4.03;;;;;10.20;100512.00;;;;9912660;29;20260;-82
2023/09/23 04:53:50;;;;;;;8.80;3.37;;;;;10.10;100525.00;;;;9928827;29;20241;-81
2023/09/23 04:58:58;;;;;;;6.43;3.10;;;;;10.10;100523.00;;;;9928473;29;20260;-82
2023/09/23 05:04:02;;;;;;;5.97;2.83;;;;;10.10;100528.00;;;;9912386;29;20220;-82
2023/09/23 05:09:04;;;;;;;10.00;3.90;;;;;10.00;100544.00;;;;9928487;29;20252;-82
2023/09/23 05:14:06;;;;;;;12.27;3.60;;;;;10.00;100548.00;;;;9927860;29;20840;-83
2023/09/23 05:19:09;;;;;;;12.67;4.50;;;;;9.90;100562.00;;;;9920492;29;20228;-83
2023/09/23 05:24:12;;;;;;;7.37;4.80;;;;;9.90;100572.00;;;;9979966;29;21132;-79
2023/09/23 05:29:14;;;;;;;9.87;4.33;;;;;10.00;100578.00;;;;9996008;29;20329;-83
2023/09/23 05:34:18;;;;;;;8.43;4.40;;;;;10.00;100592.00;;;;9929053;29;20217;-80
2023/09/23 05:39:20;;;;;;;12.63;4.63;;;;;10.00;100606.00;;;;9934602;29;20225;-83
2023/09/23 05:44:23;;;;;;;11.00;5.03;;;;;10.10;100613.00;;;;9955505;29;20850;-82
2023/09/23 05:49:25;;;;;;;15.23;5.33;;;;;10.20;100617.00;;;;9941267;29;20291;-81
2023/09/23 05:54:27;;;;;;;12.00;4.90;;;;;10.20;100620.00;;;;9936505;29;20232;-81
2023/09/23 05:59:30;;;;;;;10.33;4.87;;;;;10.30;100625.00;;;;9953610;29;20287;-82
2023/09/23 06:04:32;;;;;;;10.57;5.00;;;;;10.40;100634.00;;;;9953748;29;20311;-82
2023/09/23 06:09:34;;;;;;;13.93;5.87;;;;;10.60;100650.00;;;;9944089;29;21651;-83
2023/09/23 06:14:36;;;;;;;12.53;6.87;;;;;10.80;100657.00;;;;9951133;29;20229;-82
2023/09/23 06:19:38;;;;;;;14.90;7.00;;;;;11.00;100665.00;;;;9930826;29;20229;-83
2023/09/23 06:24:40;;;;;;;14.43;7.10;;;;;11.20;100665.00;;;;9919907;29;20827;-83
2023/09/23 06:29:46;;;;;;;14.50;6.33;;;;;11.40;100678.00;;;;9916275;29;20238;-80
2023/09/23 06:34:48;;;;;;;13.33;6.60;;;;;11.50;100680.00;;;;9943062;29;20458;-81
2023/09/23 06:39:50;;;;;;;11.47;5.70;;;;;11.70;100689.00;;;;9936252;29;20269;-78
2023/09/23 06:44:52;;;;;;;12.70;5.97;;;;;11.90;100702.00;;;;9948728;29;20221;-78
2023/09/23 06:49:54;;;;;;;12.63;5.87;;;;;12.10;100696.00;;;;9924485;29;20225;-80
2023/09/23 06:54:59;;;;;;;8.90;4.67;;;;;12.40;100706.00;;;;9945496;29;21789;-79
2023/09/23 07:00:05;;;;;;;13.70;4.77;;;;;12.50;100711.00;;;;9910717;29;20300;-80
2023/09/23 07:05:07;;;;;;;7.10;5.00;;;;;12.70;100718.00;;;;9911573;29;21900;-77
2023/09/23 07:10:09;;;;;;;10.70;4.70;;;;;12.70;100732.00;;;;9943149;29;20241;-78
2023/09/23 07:15:11;;;;;;;14.73;5.43;;;;;12.70;100739.00;;;;9945474;29;20228;-78
2023/09/23 07:20:15;;;;;;;8.27;4.90;;;;;12.80;100753.00;;;;9927387;29;20217;-79
2023/09/23 07:25:17;;;;;;;8.47;6.17;;;;;12.90;100756.00;;;;9910276;29;20225;-79
2023/09/23 07:30:19;;;;;;;10.43;5.73;;;;;13.00;100754.00;;;;9943623;29;20335;-78
2023/09/23 07:35:21;;;;;;;11.00;5.97;;;;;13.10;100766.00;;;;9898789;29;20237;-79
2023/09/23 07:40:23;;;;;;;12.60;6.50;;;;;13.30;100782.00;;;;9944069;29;20229;-82
2023/09/23 07:45:25;;;;;;;10.65;5.97;;;;;13.40;100786.00;;;;9901411;29;20213;-82
2023/09/23 07:50:28;;;;;;;11.15;6.05;;;;;13.60;100801.00;;;;9895508;29;20304;-82
2023/09/23 07:55:30;;;;;;;11.77;5.57;;;;;13.70;100809.00;;;;9874339;29;20226;-81
2023/09/23 08:00:32;;;;;;;11.13;5.10;;;;;13.90;100818.00;;;;9924792;29;22026;-81
2023/09/23 08:05:34;;;;;;;6.97;5.23;;;;;14.10;100825.00;;;;9888192;29;20220;-82
2023/09/23 08:10:36;;;;;;;49.83;35.60;;;;;14.30;100846.00;;;;9917455;29;20329;-82
2023/09/23 08:15:38;;;;;;;14.05;5.97;;;;;14.70;100857.00;;;;9914318;29;20229;-82
2023/09/23 08:20:40;;;;;;;10.15;5.55;;;;;15.00;100868.00;;;;9933192;29;20233;-82
2023/09/23 08:25:42;;;;;;;10.63;4.22;;;;;15.40;100878.00;;;;9938817;29;20224;-81
2023/09/23 08:30:46;;;;;;;7.78;3.90;;;;;15.40;100888.00;;;;9947420;29;20249;-82
2023/09/23 08:35:49;;;;;;;37.03;16.77;;;;;15.60;100902.00;;;;9946152;29;20216;-80
2023/09/23 08:40:52;;;;;;;15.32;6.47;;;;;15.80;100914.00;;;;9959782;29;20296;-82
2023/09/23 08:45:57;;;;;;;20.38;9.18;;;;;15.70;100916.00;;;;9924549;29;20229;-82
2023/09/23 08:51:01;;;;;;;11.13;4.97;;;;;15.70;100928.00;;;;9924111;29;20559;-81
2023/09/23 08:56:05;;;;;;;7.78;3.63;;;;;15.90;100928.00;;;;9906800;29;20224;-81
2023/09/23 09:01:08;;;;;;;8.52;3.38;;;;;16.10;100934.00;;;;9884203;29;20751;-81
2023/09/23 09:06:18;;;;;;;11.00;3.85;;;;;16.30;100941.00;;;;9834009;29;20226;-81
2023/09/23 09:11:22;;;;;;;9.23;4.30;;;;;16.00;100946.00;;;;9842930;29;20242;-80
2023/09/23 09:16:25;;;;;;;6.47;3.13;;;;;16.70;100966.00;;;;9865859;29;20209;-81
2023/09/23 09:21:31;;;;;;;7.13;2.75;;;;;16.80;100963.00;;;;9875143;29;20305;-81
2023/09/23 09:26:40;;;;;;;4.93;2.42;;;;;17.50;100961.00;;;;9881825;29;20217;-80
2023/09/23 09:31:45;;;;;;;5.05;2.08;;;;;18.00;100968.00;;;;9892114;29;20352;-81
2023/09/23 09:36:51;;;;;;;7.22;2.08;;;;;18.00;100969.00;;;;9867170;29;21576;-82
2023/09/23 09:41:57;;;;;;;8.63;1.88;;;;;18.00;100965.00;;;;9881676;29;20739;-81
2023/09/23 09:47:00;;;;;;;3.97;1.88;;;;;18.20;100966.00;;;;9918280;29;20228;-82
2023/09/23 09:52:03;;;;;;;5.63;1.70;;;;;18.70;100960.00;;;;9901445;29;20237;-81
2023/09/23 09:57:07;;;;;;;5.38;1.60;;;;;18.70;100973.00;;;;9927878;29;20213;-83
2023/09/23 10:02:11;;;;;;;3.97;1.63;;;;;18.40;100983.00;;;;9938260;29;20461;-80
2023/09/23 10:07:14;;;;;;;4.10;1.60;;;;;17.40;100991.00;;;;9921642;29;20300;-80
2023/09/23 10:12:19;;;;;;;6.88;1.90;;;;;17.20;100998.00;;;;9924322;29;20260;-81
2023/09/23 10:17:30;;;;;;;5.40;1.65;;;;;17.80;101003.00;;;;9925219;29;20220;-82
2023/09/23 10:22:32;;;;;;;7.70;1.73;;;;;18.70;101002.00;;;;9908055;29;20836;-82
2023/09/23 10:27:38;;;;;;;4.32;1.20;;;;;18.40;100991.00;;;;9907821;29;20916;-81
2023/09/23 10:32:43;;;;;;;3.65;1.52;;;;;18.70;101005.00;;;;9916421;29;20242;-81
2023/09/23 10:37:45;;;;;;;6.20;1.45;;;;;19.20;101003.00;;;;9904353;29;21906;-81
2023/09/23 10:42:48;;;;;;;4.82;1.23;;;;;20.00;101006.00;;;;9922007;29;20213;-81
2023/09/23 10:47:50;;;;;;;5.60;1.42;;;;;19.50;101015.00;;;;9936556;29;20273;-81
2023/09/23 10:52:53;;;;;;;4.18;1.23;;;;;20.80;101012.00;;;;9928207;29;20252;-81
2023/09/23 10:57:55;;;;;;;5.07;1.60;;;;;20.90;101014.00;;;;9925401;29;20868;-82
2023/09/23 11:02:58;;;;;;;2.45;1.30;;;;;20.20;101028.00;;;;9913284;29;20213;-82
2023/09/23 11:08:01;;;;;;;4.55;1.23;;;;;19.40;101039.00;;;;9909356;29;20228;-81
2023/09/23 11:13:05;;;;;;;4.22;1.30;;;;;18.80;101050.00;;;;9925912;29;20233;-83
2023/09/23 11:18:07;;;;;;;6.05;1.30;;;;;18.60;101050.00;;;;9914948;29;20922;-83
2023/09/23 11:23:10;;;;;;;5.57;2.03;;;;;20.50;101062.00;;;;9940557;29;20220;-83
2023/09/23 11:28:19;;;;;;;8.75;1.83;;;;;20.80;101062.00;;;;9942164;29;20221;-83
2023/09/23 11:33:22;;;;;;;3.85;1.30;;;;;21.00;101066.00;;;;9941076;29;21503;-84
2023/09/23 11:38:24;;;;;;;2.78;1.45;;;;;19.60;101080.00;;;;9932464;29;20927;-83
2023/09/23 11:43:26;;;;;;;4.70;1.83;;;;;18.60;101087.00;;;;9959789;29;20232;-83
2023/09/23 11:48:28;;;;;;;3.03;1.20;;;;;17.90;101092.00;;;;9970291;29;20217;-82
2023/09/23 11:53:30;;;;;;;3.50;1.30;;;;;18.40;101093.00;;;;9933504;29;20727;-82
2023/09/23 11:58:32;;;;;;;9.98;1.88;;;;;19.60;101103.00;;;;9934010;29;20233;-82
2023/09/23 12:03:34;;;;;;;2.03;1.23;;;;;20.60;101100.00;;;;9941807;29;21965;-82
2023/09/23 12:08:37;;;;;;;3.70;1.13;;;;;20.20;101087.00;;;;9924370;29;20280;-84
2023/09/23 12:13:39;;;;;;;2.60;1.13;;;;;20.70;101088.00;;;;9927701;29;21650;-85
2023/09/23 12:18:43;;;;;;;3.40;1.05;;;;;21.50;101109.00;;;;9936866;29;20344;-86
2023/09/23 12:23:46;;;;;;;6.63;1.75;;;;;21.80;101106.00;;;;9941750;29;20221;-85
2023/09/23 12:28:48;;;;;;;6.13;1.40;;;;;21.90;101109.00;;;;9918314;29;20241;-86
2023/09/23 12:33:53;;;;;;;2.20;0.90;;;;;22.50;101105.00;;;;9920795;29;20356;-84
2023/09/23 12:38:57;;;;;;;4.10;1.30;;;;;23.30;101109.00;;;;9920136;29;20331;-87
2023/09/23 12:43:59;;;;;;;5.20;1.80;;;;;23.30;101106.00;;;;9915737;29;20801;-85
2023/09/23 12:49:01;;;;;;;3.38;1.40;;;;;22.40;101110.00;;;;9924054;29;20236;-87
2023/09/23 12:54:03;;;;;;;4.53;1.27;;;;;21.80;101118.00;;;;9908609;29;20381;-85
2023/09/23 12:59:06;;;;;;;6.00;1.40;;;;;22.00;101115.00;;;;9906667;29;20217;-85
2023/09/23 13:04:08;;;;;;;5.88;1.55;;;;;21.30;101129.00;;;;9930906;29;21543;-85
2023/09/23 13:09:10;;;;;;;3.45;1.30;;;;;21.70;101147.00;;;;9913706;29;20233;-85
2023/09/23 13:14:12;;;;;;;2.03;1.30;;;;;21.60;101141.00;;;;9932299;29;20296;-85
2023/09/23 13:19:15;;;;;;;5.18;1.05;;;;;21.50;101151.00;;;;9899902;29;20224;-87
2023/09/23 13:24:17;;;;;;;6.00;1.30;;;;;21.10;101153.00;;;;9883083;29;20305;-88
2023/09/23 13:29:19;;;;;;;3.88;1.17;;;;;20.40;101157.00;;;;9932942;29;20237;-86
2023/09/23 13:34:21;;;;;;;3.22;1.13;;;;;20.00;101166.00;;;;9887974;29;20272;-87
2023/09/23 13:39:23;;;;;;;4.93;1.23;;;;;19.80;101178.00;;;;9894406;29;21530;-87
2023/09/23 13:44:25;;;;;;;4.28;1.30;;;;;19.80;101185.00;;;;9923912;29;20283;-87
2023/09/23 13:49:27;;;;;;;3.58;1.30;;;;;20.50;101181.00;;;;9907232;29;20623;-88
2023/09/23 13:54:29;;;;;;;5.47;1.50;;;;;20.00;101192.00;;;;9931010;29;20945;-86
2023/09/23 13:59:31;;;;;;;2.78;0.90;;;;;21.90;101136.00;;;;9949269;29;20233;-87
2023/09/23 14:04:34;;;;;;;5.15;1.50;;;;;21.70;101189.00;;;;9953273;29;20895;-86
2023/09/23 14:09:36;;;;;;;3.58;1.13;;;;;21.90;101195.00;;;;9929926;29;20261;-85
2023/09/23 14:14:38;;;;;;;4.32;1.10;;;;;21.60;101184.00;;;;9956897;29;21273;-85
2023/09/23 14:19:40;;;;;;;5.72;1.33;;;;;20.80;101210.00;;;;9954474;29;20224;-87
2023/09/23 14:24:43;;;;;;;2.95;1.20;;;;;20.20;101208.00;;;;9947368;29;20223;-85
2023/09/23 14:29:45;;;;;;;1.27;1.17;;;;;19.90;101224.00;;;;9943138;29;21681;-86
2023/09/23 14:34:47;;;;;;;3.97;1.30;;;;;19.60;101225.00;;;;9924530;29;20225;-86
2023/09/23 14:39:49;;;;;;;5.45;1.38;;;;;19.40;101227.00;;;;9916800;29;20784;-80
2023/09/23 14:44:51;;;;;;;4.47;1.10;;;;;19.50;101234.00;;;;9938781;29;21918;-79
2023/09/23 14:49:54;;;;;;;6.18;1.20;;;;;19.30;101241.00;;;;9963638;29;20331;-82
2023/09/23 14:54:56;;;;;;;2.28;0.90;;;;;19.00;101236.00;;;;9975027;29;20244;-77
2023/09/23 14:59:58;;;;;;;2.33;0.80;;;;;18.90;101242.00;;;;9931945;29;20498;-79
2023/09/23 15:05:00;;;;;;;3.72;1.10;;;;;18.70;101245.00;;;;9930216;29;20229;-79
2023/09/23 15:10:03;;;;;;;3.05;0.90;;;;;18.50;101265.00;;;;9925525;29;21013;-82
2023/09/23 15:15:06;;;;;;;3.83;1.15;;;;;18.50;101275.00;;;;9951724;29;20225;-79
2023/09/23 15:20:11;;;;;;;2.97;1.20;;;;;18.50;101282.00;;;;9919518;29;20272;-83
2023/09/23 15:25:16;;;;;;;3.42;1.10;;;;;18.30;101279.00;;;;9962989;29;20232;-80
2023/09/23 15:30:19;;;;;;;5.55;1.40;;;;;17.90;101286.00;;;;9959091;29;20241;-79
2023/09/23 15:35:23;;;;;;;9.82;1.60;;;;;17.60;101301.00;;;;9939391;29;20687;-81
2023/09/23 15:40:25;;;;;;;4.65;1.00;;;;;17.30;101306.00;;;;9908637;29;20343;-82
2023/09/23 15:45:27;;;;;;;2.72;1.00;;;;;17.10;101317.00;;;;9917330;29;20217;-82
2023/09/23 15:50:29;;;;;;;3.58;0.90;;;;;17.00;101318.00;;;;9932175;29;20487;-82
2023/09/23 15:55:34;;;;;;;3.47;1.10;;;;;16.90;101328.00;;;;9902822;29;20857;-81
2023/09/23 16:00:37;;;;;;;2.17;1.10;;;;;16.90;101338.00;;;;9941917;29;20340;-81
2023/09/23 16:05:39;;;;;;;3.08;1.25;;;;;16.80;101348.00;;;;9931487;29;20653;-83
2023/09/23 16:10:42;;;;;;;3.25;1.17;;;;;16.70;101352.00;;;;9904209;29;20269;-80
2023/09/23 16:15:44;;;;;;;6.07;1.00;;;;;16.60;101351.00;;;;9922542;29;20287;-83
2023/09/23 16:20:46;;;;;;;6.57;1.83;;;;;16.60;101364.00;;;;9902669;29;20914;-80
2023/09/23 16:25:49;;;;;;;5.00;2.05;;;;;16.50;101369.00;;;;9930385;29;20719;-83
2023/09/23 16:30:51;;;;;;;4.18;1.17;;;;;16.40;101372.00;;;;9914325;29;20225;-81
2023/09/23 16:35:53;;;;;;;3.30;1.60;;;;;16.30;101386.00;;;;9904150;29;20247;-80
2023/09/23 16:40:56;;;;;;;2.85;0.85;;;;;16.20;101385.00;;;;9938584;29;20229;-82
2023/09/23 16:45:58;;;;;;;3.45;1.10;;;;;16.00;101397.00;;;;9916904;29;20228;-79
2023/09/23 16:51:00;;;;;;;5.63;1.48;;;;;15.80;101402.00;;;;9924340;29;20241;-81
2023/09/23 16:56:03;;;;;;;2.88;1.58;;;;;15.80;101410.00;;;;9899747;29;20947;-81
2023/09/23 17:01:05;;;;;;;3.85;1.08;;;;;15.70;101421.00;;;;9930821;29;21008;-86
2023/09/23 17:06:08;;;;;;;4.65;1.17;;;;;15.60;101423.00;;;;9961310;29;20218;-85
2023/09/23 17:11:10;;;;;;;7.28;1.13;;;;;15.50;101426.00;;;;9945417;29;20252;-84
2023/09/23 17:16:12;;;;;;;3.63;1.23;;;;;15.30;101424.00;;;;9930137;29;20220;-83
2023/09/23 17:21:14;;;;;;;2.95;1.02;;;;;15.10;101444.00;;;;9945900;29;21357;-85
2023/09/23 17:26:16;;;;;;;7.03;1.50;;;;;14.90;101445.00;;;;9931643;29;20716;-84
2023/09/23 17:31:18;;;;;;;2.63;1.00;;;;;14.70;101452.00;;;;9945521;29;21320;-85
2023/09/23 17:36:20;;;;;;;7.43;1.40;;;;;14.50;101450.00;;;;9938731;29;20233;-83
2023/09/23 17:41:22;;;;;;;3.30;1.20;;;;;14.30;101470.00;;;;9953231;29;20249;-83
2023/09/23 17:46:25;;;;;;;7.07;1.80;;;;;14.10;101462.00;;;;9953418;29;20996;-83
2023/09/23 17:51:28;;;;;;;4.13;1.38;;;;;13.90;101476.00;;;;9963959;29;20236;-83
2023/09/23 17:56:30;;;;;;;5.35;1.65;;;;;13.70;101477.00;;;;9961414;29;20679;-85
2023/09/23 18:01:32;;;;;;;2.75;1.35;;;;;13.50;101484.00;;;;9949566;29;20245;-84
2023/09/23 18:06:35;;;;;;;5.80;1.70;;;;;13.40;101500.00;;;;9984947;29;20220;-85
2023/09/23 18:11:37;;;;;;;4.23;1.97;;;;;13.20;101501.00;;;;9958244;29;20621;-82
2023/09/23 18:16:39;;;;;;;6.95;4.05;;;;;13.10;101497.00;;;;9928943;29;20289;-82
2023/09/23 18:21:41;;;;;;;6.45;2.70;;;;;13.00;101512.00;;;;9943975;29;20233;-82
2023/09/23 18:26:44;;;;;;;6.23;2.20;;;;;12.90;101522.00;;;;9908719;29;20228;-83
2023/09/23 18:31:46;;;;;;;3.57;2.53;;;;;12.80;101536.00;;;;9928031;29;20309;-82
2023/09/23 18:36:48;;;;;;;5.33;1.97;;;;;12.70;101535.00;;;;9929377;29;20217;-82
2023/09/23 18:41:50;;;;;;;4.43;2.30;;;;;12.60;101553.00;;;;9911206;29;20301;-83
2023/09/23 18:46:52;;;;;;;8.07;2.90;;;;;12.50;101555.00;;;;9958120;29;20222;-82
2023/09/23 18:51:54;;;;;;;9.77;2.77;;;;;12.50;101556.00;;;;9912009;29;20237;-82
2023/09/23 18:56:56;;;;;;;9.53;3.43;;;;;12.40;101563.00;;;;9923695;29;20232;-83
2023/09/23 19:01:58;;;;;;;3.90;1.87;;;;;12.40;101568.00;;;;9926198;29;20228;-82
2023/09/23 19:07:01;;;;;;;5.43;1.87;;;;;12.30;101570.00;;;;9929118;29;20225;-83
2023/09/23 19:12:04;;;;;;;5.43;2.63;;;;;12.20;101579.00;;;;9925401;29;20275;-82
2023/09/23 19:17:06;;;;;;;8.37;2.57;;;;;12.10;101579.00;;;;9911896;29;20233;-82
2023/09/23 19:22:08;;;;;;;7.10;2.73;;;;;12.00;101582.00;;;;9914339;29;20241;-86
2023/09/23 19:27:10;;;;;;;7.03;3.00;;;;;11.90;101586.00;;;;9923236;29;20237;-87
2023/09/23 19:32:13;;;;;;;10.40;6.43;;;;;11.70;101587.00;;;;9923545;29;20233;-87
2023/09/23 19:37:16;;;;;;;7.97;4.23;;;;;11.70;101601.00;;;;9938420;29;20259;-86
2023/09/23 19:42:18;;;;;;;5.47;3.23;;;;;11.60;101612.00;;;;9922369;29;20494;-87
2023/09/23 19:47:21;;;;;;;8.20;4.00;;;;;11.50;101602.00;;;;9934574;29;20221;-86
2023/09/23 19:52:23;;;;;;;8.17;4.13;;;;;11.40;101623.00;;;;9907302;29;20332;-86
2023/09/23 19:57:26;;;;;;;8.27;3.53;;;;;11.30;101620.00;;;;9923946;29;21453;-87
2023/09/23 20:02:28;;;;;;;4.70;3.03;;;;;11.30;101624.00;;;;9909583;29;20249;-87
2023/09/23 20:07:34;;;;;;;7.13;3.40;;;;;11.20;101637.00;;;;9930014;29;20229;-87
2023/09/23 20:12:37;;;;;;;10.53;3.23;;;;;11.20;101625.00;;;;9921609;29;20240;-86
2023/09/23 20:17:39;;;;;;;8.47;3.53;;;;;11.20;101648.00;;;;9892958;29;20681;-87
2023/09/23 20:22:42;;;;;;;8.93;3.60;;;;;11.20;101651.00;;;;9929650;29;20221;-86
2023/09/23 20:27:44;;;;;;;7.30;4.57;;;;;11.10;101641.00;;;;9951676;29;20328;-87
2023/09/23 20:32:47;;;;;;;8.60;4.33;;;;;11.10;101648.00;;;;9955699;29;20237;-83
2023/09/23 20:37:49;;;;;;;7.90;4.83;;;;;11.10;101644.00;;;;9950558;29;20233;-84
2023/09/23 20:42:52;;;;;;;8.60;4.30;;;;;11.00;101657.00;;;;9939209;29;20311;-83
2023/09/23 20:47:54;;;;;;;9.80;4.63;;;;;10.90;101657.00;;;;9927549;29;20515;-83
2023/09/23 20:52:57;;;;;;;6.93;4.10;;;;;10.90;101657.00;;;;9943959;29;20775;-84
2023/09/23 20:57:59;;;;;;;9.93;4.80;;;;;10.90;101671.00;;;;9945348;29;20575;-85
2023/09/23 21:03:04;;;;;;;9.60;5.00;;;;;10.90;101676.00;;;;9963496;29;20527;-84
2023/09/23 21:08:11;;;;;;;6.20;4.10;;;;;10.90;101672.00;;;;9952677;29;20229;-85
2023/09/23 21:13:13;;;;;;;7.87;4.33;;;;;10.90;101682.00;;;;9964010;29;20220;-84
2023/09/23 21:18:15;;;;;;;8.13;3.67;;;;;10.90;101686.00;;;;9983353;29;20266;-83
2023/09/23 21:23:17;;;;;;;6.43;3.13;;;;;10.90;101693.00;;;;10006340;29;20239;-83
2023/09/23 21:28:19;;;;;;;6.77;3.83;;;;;10.80;101698.00;;;;9981143;29;20345;-83
2023/09/23 21:33:21;;;;;;;7.90;3.37;;;;;10.70;101707.00;;;;9975819;29;20387;-83
2023/09/23 21:38:24;;;;;;;5.67;3.37;;;;;10.70;101720.00;;;;9969779;29;20220;-84
2023/09/23 21:43:26;;;;;;;5.30;3.13;;;;;10.60;101727.00;;;;9937761;29;20475;-88
2023/09/23 21:48:28;;;;;;;10.07;4.13;;;;;10.50;101722.00;;;;9922816;29;20221;-87
2023/09/23 21:53:30;;;;;;;6.73;3.47;;;;;10.40;101735.00;;;;9907751;29;20233;-86
2023/09/23 21:58:33;;;;;;;6.13;2.97;;;;;10.30;101724.00;;;;9944404;29;20233;-87
2023/09/23 22:03:36;;;;;;;4.17;2.73;;;;;10.30;101716.00;;;;9930022;29;20277;-87
2023/09/23 22:08:38;;;;;;;9.70;3.33;;;;;10.20;101720.00;;;;9944528;29;20224;-87
2023/09/23 22:13:40;;;;;;;5.23;2.67;;;;;10.10;101715.00;;;;9925961;29;20241;-87
2023/09/23 22:18:42;;;;;;;4.00;2.93;;;;;10.10;101729.00;;;;9932526;29;20241;-87
2023/09/23 22:23:44;;;;;;;6.30;3.20;;;;;10.10;101730.00;;;;9949690;29;21244;-86
2023/09/23 22:28:47;;;;;;;6.27;3.77;;;;;10.00;101725.00;;;;9935784;29;20226;-87
2023/09/23 22:33:49;;;;;;;8.20;3.80;;;;;10.00;101723.00;;;;9920048;29;21343;-87
2023/09/23 22:38:51;;;;;;;4.63;3.07;;;;;10.00;101727.00;;;;9912700;29;20221;-87
2023/09/23 22:43:55;;;;;;;5.73;3.20;;;;;9.90;101736.00;;;;9946202;29;20228;-86
2023/09/23 22:48:58;;;;;;;7.37;3.00;;;;;9.90;101735.00;;;;9930620;29;20284;-87
2023/09/23 22:54:01;;;;;;;10.47;3.50;;;;;9.80;101744.00;;;;9944798;29;21794;-88
2023/09/23 22:59:04;;;;;;;5.77;3.27;;;;;9.70;101739.00;;;;9911405;29;20313;-88
2023/09/23 23:04:06;;;;;;;4.80;2.73;;;;;9.70;101744.00;;;;9910095;29;21055;-88
2023/09/23 23:09:08;;;;;;;6.20;2.83;;;;;9.60;101744.00;;;;9926181;29;20225;-86
2023/09/23 23:14:11;;;;;;;6.63;2.77;;;;;9.60;101757.00;;;;9937516;29;20345;-88
2023/09/23 23:19:13;;;;;;;8.27;2.87;;;;;9.60;101754.00;;;;9944851;29;20278;-87
2023/09/23 23:24:15;;;;;;;4.77;2.90;;;;;9.60;101751.00;;;;9941282;29;20603;-86
2023/09/23 23:29:17;;;;;;;4.07;2.50;;;;;9.70;101758.00;;;;9940711;29;21271;-87
2023/09/23 23:34:20;;;;;;;6.97;2.90;;;;;9.60;101761.00;;;;9929500;29;20249;-87
2023/09/23 23:39:22;;;;;;;7.50;3.10;;;;;9.60;101756.00;;;;9913316;29;21659;-89
2023/09/23 23:44:26;;;;;;;7.73;2.73;;;;;9.60;101758.00;;;;9908427;29;20231;-87
2023/09/23 23:49:29;;;;;;;4.97;2.83;;;;;9.60;101765.00;;;;9936556;29;20929;-87
2023/09/23 23:54:32;;;;;;;5.27;2.80;;;;;9.60;101770.00;;;;9910256;29;20773;-88
2023/09/23 23:59:34;;;;;;;7.67;2.60;;;;;9.60;101767.00;;;;9928486;29;20281;-83
